ADDS METAR Data INFO
IDs: Format: Raw Decoded Include TAF

Data at: 0328 UTC 16 Dec 2017

KCNU 160252Z AUTO 19010KT 10SM CLR 02/M05 A3004 RMK AO2 SLP178 T00171050 58001
KCNU 160152Z AUTO 18007KT 10SM CLR 02/M05 A3006 RMK AO2 SLP185 T00171050
KCNU 160052Z AUTO 20007KT 10SM CLR 04/M04 A3006 RMK AO2 SLP185 T00391044
KCNU 152352Z AUTO 20011KT 10SM CLR 05/M05 A3004 RMK AO2 SLP178 T00501050 10094 20044 58019
KCNU 152252Z AUTO 22008KT 10SM CLR 07/M05 A3008 RMK AO2 SLP189 T00721050
KCNU 152152Z AUTO 23010G17KT 10SM CLR 09/M05 A3009 RMK AO2 SLP194 T00891050
KCNU 152052Z AUTO 25012G18KT 10SM CLR 09/M05 A3010 RMK AO2 SLP195 T00891050 56029
KCNU 151952Z AUTO 24010G19KT 10SM CLR 08/M05 A3012 RMK AO2 SLP202 T00831050
KCNU 151852Z AUTO 28012KT 10SM CLR 08/M04 A3016 RMK AO2 SLP214 T00781044
KCNU 151752Z AUTO 29009KT 10SM CLR 07/M04 A3019 RMK AO2 SLP226 T00671039 10067 21011 58003
KCNU 151652Z AUTO 27009KT 10SM CLR 05/M02 A3022 RMK AO2 SLP236 T00501022
KCNU 151552Z AUTO 29006KT 10SM CLR 03/M01 A3021 RMK AO2 SLP236 T00331011
KCNU 151452Z AUTO 28006KT 8SM CLR 01/M01 A3020 RMK AO2 SLP231 T00111011 50005
KCNU 151352Z AUTO 27005KT 7SM CLR M01/M03 A3020 RMK AO2 SLP234 T10111028
KCNU 151252Z AUTO 29006KT 10SM CLR M01/M02 A3020 RMK AO2 SLP234 T10061017
KCNU 151152Z AUTO 31007KT 10SM SCT020 01/M01 A3018 RMK AO2 SLP228 T00061006 10044 20006 51005
KCNU 151052Z AUTO 30006KT 10SM CLR 01/M01 A3018 RMK AO2 SLP225 T00111011
KCNU 150952Z AUTO 31007KT 10SM BKN070 02/M01 A3018 RMK AO2 SLP222 T00221006
KCNU 150852Z AUTO 32009KT 10SM OVC070 04/M01 A3017 RMK AO2 SLP219 T00391006 53009
KCNU 150833Z AUTO 32013KT 10SM SCT022 OVC075 04/M01 A3017 RMK AO2 T00391006
KCNU 150807Z AUTO 33008KT 10SM BKN022 OVC075 04/00 A3016 RMK AO2 T00440000
KCNU 150752Z AUTO 32009KT 10SM FEW022 OVC075 04/00 A3016 RMK AO2 SLP215 T00440000
KCNU 150652Z AUTO 32008KT 10SM OVC080 04/M01 A3014 RMK AO2 SLP211 T00441006
KCNU 150552Z AUTO 30004KT 10SM OVC080 04/M01 A3014 RMK AO2 SLP210 T00441011 10050 20006 400831028 50002
KCNU 150452Z AUTO 31004KT 10SM OVC055 04/M02 A3015 RMK AO2 SLP212 T00441017
KCNU 150352Z AUTO 00000KT 10SM OVC070 03/M02 A3014 RMK AO2 SLP211 T00281017
KCNU 150252Z AUTO 25005KT 10SM OVC042 05/M02 A3013 RMK AO2 SLP209 T00501022 51011
KCNU 150152Z AUTO 21003KT 10SM OVC050 04/M03 A3012 RMK AO2 SLP206 T00441028
KCNU 150052Z AUTO 20005KT 10SM OVC050 04/M02 A3011 RMK AO2 SLP204 T00391022
KCNU 142352Z AUTO 00000KT 10SM SCT080 01/M04 A3010 RMK AO2 SLP200 T00111039 10083 20011 52004
KCNU 142252Z AUTO 00000KT 10SM FEW055 05/M04 A3009 RMK AO2 SLP196 T00501039
KCNU 142152Z AUTO 31005KT 10SM CLR 08/M04 A3009 RMK AO2 SLP195 T00781039
KCNU 142052Z AUTO 29005KT 10SM BKN050 08/M04 A3009 RMK AO2 PK WND 27027/2022 SLP193 T00781039 58012
KCNU 141952Z AUTO 34007KT 10SM BKN044 07/M04 A3011 RMK AO2 SLP199 T00671039
KCNU 141852Z AUTO 35008KT 10SM OVC042 06/M03 A3012 RMK AO2 SLP202 T00611028
KCNU 141752Z AUTO 01007KT 10SM FEW034 OVC046 06/M03 A3012 RMK AO2 SLP204 T00561028 10056 21017 50005
KCNU 141652Z AUTO 34006KT 10SM OVC040 04/M02 A3014 RMK AO2 SLP211 T00441017
KCNU 141552Z AUTO 34004KT 10SM OVC039 03/M02 A3014 RMK AO2 SLP209 T00331017